createdAt,value
2018-02-05T00:00:17.408Z,22.23
2018-02-05T00:02:44.149Z,24.23
2018-02-05T00:05:11.763Z,24.83
2018-02-05T00:07:38.666Z,24.57
2018-02-05T00:10:05.401Z,25.10
2018-02-05T00:12:33.005Z,24.03
2018-02-05T00:15:00.056Z,24.17
2018-02-05T00:17:26.966Z,22.87
2018-02-05T00:19:53.746Z,25.47
2018-02-05T00:22:20.575Z,25.13
2018-02-05T00:24:47.348Z,24.47
2018-02-05T00:27:14.095Z,29.83
2018-02-05T00:29:40.882Z,30.23
2018-02-05T00:32:07.709Z,27.10
2018-02-05T00:34:34.457Z,26.53
2018-02-05T00:37:01.229Z,26.90
2018-02-05T00:39:28.042Z,27.20
2018-02-05T00:41:54.792Z,28.07
2018-02-05T00:44:21.576Z,25.53
2018-02-05T00:46:48.362Z,27.90
2018-02-05T00:49:15.149Z,25.60
2018-02-05T00:51:41.902Z,27.70
2018-02-05T00:54:08.682Z,27.27
2018-02-05T00:56:35.462Z,27.63
2018-02-05T00:59:02.273Z,27.43
2018-02-05T01:01:29.217Z,28.53
2018-02-05T01:03:56.036Z,28.07
2018-02-05T01:06:22.945Z,28.53
2018-02-05T01:08:49.775Z,28.80
2018-02-05T01:11:16.640Z,27.07
2018-02-05T01:13:43.545Z,26.00
2018-02-05T01:16:10.427Z,27.87
2018-02-05T01:18:37.343Z,25.57
2018-02-05T01:21:04.239Z,23.37
2018-02-05T01:23:31.172Z,23.23
2018-02-05T01:25:58.120Z,24.17
2018-02-05T01:28:25.200Z,22.80
2018-02-05T01:30:52.092Z,19.77
2018-02-05T01:33:19.028Z,18.67
2018-02-05T01:35:45.878Z,20.17
2018-02-05T01:38:12.879Z,16.97
2018-02-05T01:40:40.010Z,18.30
2018-02-05T01:43:06.949Z,19.87
2018-02-05T01:45:33.879Z,19.80
2018-02-05T01:48:00.760Z,19.40
2018-02-05T01:50:27.695Z,19.60
2018-02-05T01:52:54.600Z,17.63
2018-02-05T01:55:21.515Z,19.80
2018-02-05T01:57:48.455Z,18.87
2018-02-05T02:00:15.398Z,17.63
2018-02-05T02:02:42.263Z,18.57
2018-02-05T02:05:09.165Z,19.63
2018-02-05T02:07:37.075Z,16.20
2018-02-05T02:10:04.039Z,14.47
2018-02-05T02:12:30.999Z,15.80
2018-02-05T02:14:57.912Z,17.77
2018-02-05T02:17:24.933Z,17.83
2018-02-05T02:19:51.933Z,17.73
2018-02-05T02:22:18.859Z,17.70
2018-02-05T02:24:45.831Z,17.77
2018-02-05T02:27:13.125Z,16.33
2018-02-05T02:29:40.201Z,17.30
2018-02-05T02:32:07.127Z,18.60
2018-02-05T02:34:34.860Z,18.23
2018-02-05T02:37:01.695Z,18.73
2018-02-05T02:39:28.624Z,19.07
2018-02-05T02:41:55.660Z,17.87
2018-02-05T02:44:22.749Z,17.17
2018-02-05T02:46:49.605Z,18.37
2018-02-05T02:49:16.399Z,19.53
2018-02-05T02:51:43.373Z,16.47
2018-02-05T02:54:10.397Z,17.57
2018-02-05T02:56:37.445Z,16.30
2018-02-05T02:59:04.444Z,15.40
2018-02-05T03:01:31.391Z,15.00
2018-02-05T03:03:58.290Z,14.77
2018-02-05T03:06:25.482Z,15.23
2018-02-05T03:08:52.669Z,15.33
2018-02-05T03:11:19.618Z,15.07
2018-02-05T03:13:46.678Z,15.03
2018-02-05T03:16:13.670Z,15.13
2018-02-05T03:18:40.621Z,14.63
2018-02-05T03:21:07.594Z,14.07
2018-02-05T03:23:34.526Z,15.80
2018-02-05T03:26:01.767Z,12.47
2018-02-05T03:28:28.922Z,13.07
2018-02-05T03:30:55.879Z,11.90
2018-02-05T03:33:22.964Z,13.83
2018-02-05T03:35:49.884Z,14.10
2018-02-05T03:38:16.851Z,13.80
2018-02-05T03:40:43.827Z,12.80
2018-02-05T03:43:10.786Z,13.77
2018-02-05T03:45:37.758Z,12.17
2018-02-05T03:48:04.845Z,12.40
2018-02-05T03:50:32.030Z,13.17
2018-02-05T03:52:58.826Z,10.33
2018-02-05T03:55:25.865Z,12.30
2018-02-05T03:57:52.812Z,13.80
2018-02-05T04:00:19.679Z,13.60
2018-02-05T04:02:46.626Z,12.20
2018-02-05T04:05:13.606Z,11.67
2018-02-05T04:07:40.591Z,10.73
2018-02-05T04:10:08.449Z,10.70
2018-02-05T04:12:35.257Z,11.53
2018-02-05T04:15:02.242Z,9.70
2018-02-05T04:17:29.049Z,11.17
2018-02-05T04:19:55.939Z,10.57
2018-02-05T04:22:22.898Z,12.20
2018-02-05T04:24:49.805Z,11.87
2018-02-05T04:27:16.748Z,12.47
2018-02-05T04:29:43.969Z,12.97
2018-02-05T04:32:10.844Z,12.73
2018-02-05T04:34:37.801Z,13.07
2018-02-05T04:37:04.966Z,13.17
2018-02-05T04:39:31.964Z,12.23
2018-02-05T04:41:58.948Z,13.03
2018-02-05T04:44:25.989Z,14.33
2018-02-05T04:46:53.007Z,13.00
2018-02-05T04:49:19.962Z,11.23
2018-02-05T04:51:46.869Z,9.67
2018-02-05T04:54:13.990Z,9.27
2018-02-05T04:56:40.858Z,9.13
2018-02-05T04:59:07.741Z,8.87
2018-02-05T05:01:34.857Z,9.37
2018-02-05T05:04:01.870Z,8.50
2018-02-05T05:06:28.780Z,7.90
2018-02-05T05:08:55.691Z,8.50
2018-02-05T05:11:23.345Z,9.03
2018-02-05T05:13:50.263Z,9.10
2018-02-05T05:16:17.204Z,9.47
2018-02-05T05:18:44.042Z,7.43
2018-02-05T05:21:10.866Z,10.67
2018-02-05T05:23:37.785Z,9.97
2018-02-05T05:26:04.800Z,9.80
2018-02-05T05:28:31.698Z,10.93
2018-02-05T05:30:58.630Z,10.90
2018-02-05T05:33:25.812Z,10.93
2018-02-05T05:35:52.798Z,10.73
2018-02-05T05:38:19.882Z,10.03
2018-02-05T05:40:46.714Z,10.43
2018-02-05T05:43:13.617Z,11.00
2018-02-05T05:45:40.642Z,9.87
2018-02-05T05:48:07.502Z,10.20
2018-02-05T05:50:34.546Z,10.60
2018-02-05T05:53:01.633Z,10.10
2018-02-05T05:55:28.786Z,9.83
2018-02-05T05:57:56.284Z,9.77
2018-02-05T06:00:23.768Z,9.27
2018-02-05T06:02:50.602Z,9.43
2018-02-05T06:05:17.421Z,10.37
2018-02-05T06:07:44.281Z,10.83
2018-02-05T06:10:11.130Z,10.07
2018-02-05T06:12:37.962Z,9.63
2018-02-05T06:15:04.803Z,9.90
2018-02-05T06:17:31.657Z,11.00
2018-02-05T06:19:58.571Z,10.40
2018-02-05T06:22:25.519Z,11.30
2018-02-05T06:24:52.414Z,10.60
2018-02-05T06:27:21.240Z,11.00
2018-02-05T06:29:48.005Z,12.07
2018-02-05T06:32:14.746Z,18.17
2018-02-05T06:34:41.630Z,23.37
2018-02-05T06:37:08.470Z,23.40
2018-02-05T06:39:35.861Z,33.40
2018-02-05T06:42:02.626Z,20.20
2018-02-05T06:44:29.468Z,24.17
2018-02-05T06:46:56.373Z,23.73
2018-02-05T06:49:23.185Z,16.93
2018-02-05T06:51:55.959Z,11.67
2018-02-05T06:54:30.161Z,11.37
2018-02-05T06:56:56.898Z,12.67
2018-02-05T06:59:23.641Z,15.40
2018-02-05T07:01:50.421Z,24.83
2018-02-05T07:04:17.200Z,24.50
2018-02-05T07:06:43.982Z,21.33
2018-02-05T07:09:10.760Z,12.47
2018-02-05T07:11:37.520Z,11.20
2018-02-05T07:14:05.054Z,11.30
2018-02-05T07:16:31.777Z,11.03
2018-02-05T07:18:58.531Z,11.80
2018-02-05T07:21:25.292Z,16.73
2018-02-05T07:23:52.047Z,18.47
2018-02-05T07:26:18.900Z,17.97
2018-02-05T07:28:45.654Z,18.70
2018-02-05T07:31:12.415Z,18.40
2018-02-05T07:33:39.200Z,19.60
2018-02-05T07:36:06.330Z,17.10
2018-02-05T07:38:34.878Z,16.50
2018-02-05T07:41:02.494Z,16.67
2018-02-05T07:43:29.300Z,14.73
2018-02-05T07:45:56.836Z,15.70
2018-02-05T07:48:23.590Z,17.50
2018-02-05T07:50:51.113Z,18.27
2018-02-05T07:53:18.642Z,17.80
2018-02-05T07:55:46.874Z,17.37
2018-02-05T07:58:13.638Z,16.40
2018-02-05T08:00:50.688Z,17.17
2018-02-05T08:03:19.202Z,14.03
2018-02-05T08:05:46.045Z,14.83
2018-02-05T08:08:12.826Z,13.23
2018-02-05T08:10:39.589Z,13.93
2018-02-05T08:13:06.487Z,14.57
2018-02-05T08:15:33.244Z,14.20
2018-02-05T08:18:00.009Z,14.63
2018-02-05T08:20:27.124Z,13.67
2018-02-05T08:22:54.031Z,13.97
2018-02-05T08:25:20.789Z,14.57
2018-02-05T08:27:47.570Z,15.97
2018-02-05T08:30:14.345Z,17.07
2018-02-05T08:32:41.345Z,15.37
2018-02-05T08:35:08.120Z,15.57
2018-02-05T08:37:35.745Z,12.80
2018-02-05T08:40:02.553Z,17.60
2018-02-05T08:42:29.436Z,21.43
2018-02-05T08:44:56.353Z,17.60
2018-02-05T08:47:23.105Z,18.00
2018-02-05T08:49:49.898Z,21.23
2018-02-05T08:52:16.654Z,20.20
2018-02-05T08:54:43.550Z,15.73
2018-02-05T08:57:11.189Z,15.87
2018-02-05T08:59:37.950Z,13.93
2018-02-05T09:02:06.009Z,18.00
2018-02-05T09:04:32.799Z,20.07
2018-02-05T09:06:59.700Z,17.33
2018-02-05T09:09:26.513Z,11.10
2018-02-05T09:11:53.269Z,13.27
2018-02-05T09:14:29.982Z,13.33
2018-02-05T09:16:56.817Z,18.67
2018-02-05T09:19:23.592Z,14.17
2018-02-05T09:21:50.382Z,20.70
2018-02-05T09:24:17.138Z,15.37
2018-02-05T09:26:43.952Z,11.40
2018-02-05T09:29:10.685Z,16.53
2018-02-05T09:31:37.452Z,13.27
2018-02-05T09:34:04.318Z,13.00
2018-02-05T09:36:31.070Z,10.40
2018-02-05T09:38:58.716Z,6.67
2018-02-05T09:41:25.440Z,5.97
2018-02-05T09:43:52.193Z,6.67
2018-02-05T09:46:18.983Z,5.10
2018-02-05T09:48:45.785Z,5.90
2018-02-05T09:51:12.527Z,6.80
2018-02-05T09:53:39.375Z,9.57
2018-02-05T09:56:06.154Z,8.53
2018-02-05T09:58:32.900Z,5.90
2018-02-05T10:00:59.726Z,5.53
2018-02-05T10:03:26.531Z,5.33
2018-02-05T10:05:54.354Z,5.03
2018-02-05T10:08:21.195Z,6.53
2018-02-05T10:10:48.087Z,7.93
2018-02-05T10:13:15.587Z,5.23
2018-02-05T10:15:48.475Z,6.50
2018-02-05T10:18:15.248Z,7.13
2018-02-05T10:20:42.105Z,7.10
2018-02-05T10:23:08.862Z,7.87
2018-02-05T10:25:35.648Z,8.07
2018-02-05T10:28:02.432Z,9.53
2018-02-05T10:30:29.182Z,9.00
2018-02-05T10:32:55.925Z,15.57
2018-02-05T10:35:22.822Z,9.17
2018-02-05T10:37:50.402Z,8.10
2018-02-05T10:40:17.165Z,8.73
2018-02-05T10:42:43.965Z,6.43
2018-02-05T10:45:10.750Z,6.53
2018-02-05T10:47:37.498Z,7.17
2018-02-05T10:50:04.443Z,6.63
2018-02-05T10:52:31.836Z,8.43
2018-02-05T10:54:58.617Z,7.17
2018-02-05T10:57:25.395Z,10.07
2018-02-05T10:59:53.510Z,7.47
2018-02-05T11:02:20.263Z,8.30
2018-02-05T11:04:46.993Z,8.03
2018-02-05T11:07:13.746Z,8.60
2018-02-05T11:09:40.501Z,7.77
2018-02-05T11:12:07.281Z,6.70
2018-02-05T11:14:34.070Z,7.17
2018-02-05T11:17:00.858Z,6.30
2018-02-05T11:19:27.603Z,5.73
2018-02-05T11:21:54.361Z,3.73
2018-02-05T11:24:21.121Z,4.43
2018-02-05T11:26:47.866Z,4.67
2018-02-05T11:29:14.631Z,5.47
2018-02-05T11:31:41.401Z,4.57
2018-02-05T11:34:08.146Z,5.77
2018-02-05T11:36:34.887Z,6.63
2018-02-05T11:39:01.626Z,6.00
2018-02-05T11:41:29.165Z,7.63
2018-02-05T11:44:05.981Z,4.57
2018-02-05T11:46:33.198Z,6.03
2018-02-05T11:49:00.165Z,6.47
2018-02-05T11:51:27.222Z,7.30
2018-02-05T11:53:54.293Z,6.43
2018-02-05T11:56:21.226Z,7.77
2018-02-05T11:58:48.065Z,3.67
2018-02-05T12:01:14.895Z,5.30
2018-02-05T12:03:41.704Z,3.57
2018-02-05T12:06:08.690Z,4.23
2018-02-05T12:08:36.356Z,5.50
2018-02-05T12:11:03.588Z,5.40
2018-02-05T12:13:31.022Z,4.27
2018-02-05T12:15:57.817Z,7.37
2018-02-05T12:18:24.690Z,5.70
2018-02-05T12:20:51.544Z,5.20
2018-02-05T12:23:18.340Z,4.37
2018-02-05T12:25:45.139Z,3.63
2018-02-05T12:28:12.186Z,6.40
2018-02-05T12:30:39.623Z,5.30
2018-02-05T12:33:06.519Z,4.47
2018-02-05T12:35:33.526Z,6.30
2018-02-05T12:38:00.926Z,9.10
2018-02-05T12:40:27.734Z,4.40
2018-02-05T12:42:54.939Z,7.00
2018-02-05T12:45:21.884Z,6.07
2018-02-05T12:47:48.735Z,6.73
2018-02-05T12:50:15.497Z,4.93
2018-02-05T12:52:42.288Z,5.60
2018-02-05T12:55:09.110Z,5.83
2018-02-05T12:57:36.841Z,5.00
2018-02-05T13:00:22.434Z,5.83
2018-02-05T13:02:50.241Z,5.80
2018-02-05T13:05:20.649Z,5.03
2018-02-05T13:07:47.387Z,3.13
2018-02-05T13:10:14.323Z,4.17
2018-02-05T13:12:42.054Z,5.87
2018-02-05T13:15:09.125Z,4.80
2018-02-05T13:17:36.041Z,4.70
2018-02-05T13:20:02.802Z,6.73
2018-02-05T13:22:29.762Z,5.53
2018-02-05T13:24:56.631Z,3.77
2018-02-05T13:27:23.418Z,3.63
2018-02-05T13:29:50.187Z,3.80
2018-02-05T13:32:16.982Z,4.37
2018-02-05T13:34:43.746Z,3.40
2018-02-05T13:37:10.501Z,3.33
2018-02-05T13:39:38.054Z,3.10
2018-02-05T13:42:05.075Z,2.57
2018-02-05T13:44:32.315Z,2.00
2018-02-05T13:46:59.066Z,4.83
2018-02-05T13:49:25.832Z,5.93
2018-02-05T13:51:52.629Z,3.90
2018-02-05T13:54:19.702Z,4.53
2018-02-05T13:56:47.197Z,5.67
2018-02-05T13:59:14.231Z,4.33
2018-02-05T14:01:42.465Z,3.70
2018-02-05T14:04:10.245Z,4.07
2018-02-05T14:06:38.120Z,8.83
2018-02-05T14:09:05.551Z,6.73
2018-02-05T14:11:33.854Z,7.30
2018-02-05T14:14:00.667Z,4.93
2018-02-05T14:16:27.436Z,6.50
2018-02-05T14:19:00.058Z,5.73
2018-02-05T14:21:26.818Z,4.93
2018-02-05T14:23:53.570Z,6.10
2018-02-05T14:26:20.315Z,7.90
2018-02-05T14:28:47.113Z,5.47
2018-02-05T14:31:13.866Z,5.13
2018-02-05T14:33:40.661Z,5.47
2018-02-05T14:36:07.399Z,3.20
2018-02-05T14:38:34.250Z,2.60
2018-02-05T14:41:01.008Z,5.70
2018-02-05T14:43:27.788Z,3.83
2018-02-05T14:45:54.575Z,11.67
2018-02-05T14:48:21.321Z,10.53
2018-02-05T14:50:48.113Z,15.33
2018-02-05T14:53:14.940Z,11.07
2018-02-05T14:55:41.697Z,9.47
2018-02-05T14:58:09.837Z,5.70
2018-02-05T15:00:36.606Z,6.73
2018-02-05T15:03:06.698Z,8.73
2018-02-05T15:05:37.422Z,5.13
2018-02-05T15:08:04.230Z,10.70
2018-02-05T15:10:31.009Z,12.30
2018-02-05T15:12:57.784Z,16.57
2018-02-05T15:15:24.602Z,6.40
2018-02-05T15:17:51.370Z,30.13
2018-02-05T15:20:18.119Z,5.13
2018-02-05T15:22:44.873Z,4.97
2018-02-05T15:25:11.793Z,11.53
2018-02-05T15:27:38.645Z,7.53
2018-02-05T15:30:05.518Z,2.83
2018-02-05T15:32:32.274Z,4.87
2018-02-05T15:34:59.097Z,6.33
2018-02-05T15:37:26.014Z,5.30
2018-02-05T15:39:52.765Z,6.20
2018-02-05T15:42:19.584Z,4.37
2018-02-05T15:44:46.366Z,4.70
2018-02-05T15:47:15.013Z,10.00
2018-02-05T15:49:41.912Z,11.53
2018-02-05T15:52:08.679Z,14.23
2018-02-05T15:54:36.510Z,7.60
2018-02-05T15:57:03.330Z,12.40
2018-02-05T15:59:30.230Z,11.27
2018-02-05T16:01:58.921Z,16.30
2018-02-05T16:07:16.325Z,9.53
2018-02-05T16:09:43.537Z,9.37
2018-02-05T16:12:10.736Z,8.60
2018-02-05T16:14:38.188Z,7.47
2018-02-05T16:17:05.134Z,9.70
2018-02-05T16:19:35.902Z,12.57
2018-02-05T16:22:02.694Z,12.97
2018-02-05T16:24:29.509Z,14.00
2018-02-05T16:26:57.171Z,14.10
2018-02-05T16:29:24.233Z,18.80
2018-02-05T16:31:51.013Z,17.00
2018-02-05T16:34:17.838Z,17.10
2018-02-05T16:36:44.917Z,16.40
2018-02-05T16:39:11.881Z,18.27
2018-02-05T16:41:38.681Z,19.57
2018-02-05T16:44:07.902Z,15.13
2018-02-05T16:46:34.695Z,11.40
2018-02-05T16:49:01.486Z,17.63
2018-02-05T16:51:28.422Z,17.77
2018-02-05T16:53:55.314Z,17.10
2018-02-05T16:56:22.252Z,20.63
2018-02-05T16:58:49.052Z,20.60
2018-02-05T17:01:15.844Z,22.97
2018-02-05T17:03:42.604Z,25.17
2018-02-05T17:06:09.370Z,24.97
2018-02-05T17:08:36.132Z,26.13
2018-02-05T17:11:02.884Z,28.13
2018-02-05T17:13:29.675Z,24.50
2018-02-05T17:15:56.489Z,28.10
2018-02-05T17:18:23.294Z,30.10
2018-02-05T17:20:50.557Z,25.47
2018-02-05T17:23:29.665Z,22.43
2018-02-05T17:25:56.497Z,27.77
2018-02-05T17:28:23.282Z,32.67
2018-02-05T17:30:50.040Z,35.13
2018-02-05T17:33:16.822Z,37.47
2018-02-05T17:35:43.601Z,49.07
2018-02-05T17:40:54.180Z,54.60
2018-02-05T17:43:20.952Z,52.13
2018-02-05T17:45:49.336Z,25.43
2018-02-05T17:48:16.323Z,38.10
2018-02-05T17:50:43.085Z,27.63
2018-02-05T17:53:09.862Z,21.00
2018-02-05T17:55:36.692Z,16.17
2018-02-05T17:58:03.437Z,20.20
2018-02-05T18:00:30.203Z,21.00
2018-02-05T18:02:57.065Z,19.33
2018-02-05T18:05:23.862Z,36.40
2018-02-05T18:07:50.653Z,40.77
2018-02-05T18:10:17.445Z,61.73
2018-02-05T18:12:44.227Z,52.40
2018-02-05T18:15:11.024Z,28.00
2018-02-05T18:17:37.797Z,44.40
2018-02-05T18:20:04.553Z,34.90
2018-02-05T18:22:31.322Z,23.97
2018-02-05T18:24:58.104Z,34.17
2018-02-05T18:27:24.994Z,51.53
2018-02-05T18:29:51.736Z,28.77
2018-02-05T18:32:28.427Z,22.93
2018-02-05T18:34:55.195Z,25.23
2018-02-05T18:37:21.986Z,55.83
2018-02-05T18:39:48.779Z,21.37
2018-02-05T18:42:15.565Z,27.97
2018-02-05T18:44:42.364Z,40.00
2018-02-05T18:47:09.114Z,40.30
2018-02-05T18:49:36.307Z,43.90
2018-02-05T18:52:03.081Z,36.20
2018-02-05T18:54:31.109Z,43.13
2018-02-05T18:56:58.148Z,42.67
2018-02-05T18:59:25.194Z,35.73
2018-02-05T19:01:57.963Z,42.37
2018-02-05T19:04:25.655Z,35.80
2018-02-05T19:06:52.624Z,18.83
2018-02-05T19:09:19.762Z,18.00
2018-02-05T19:11:46.770Z,22.07
2018-02-05T19:14:14.436Z,18.10
2018-02-05T19:16:41.189Z,15.03
2018-02-05T19:19:08.845Z,18.37
2018-02-05T19:21:38.957Z,22.20
2018-02-05T19:24:05.738Z,28.20
2018-02-05T19:26:33.270Z,26.00
2018-02-05T19:29:00.085Z,25.00
2018-02-05T19:31:28.533Z,21.57
2018-02-05T19:33:58.562Z,21.27
2018-02-05T19:36:25.476Z,25.20
2018-02-05T19:38:52.257Z,31.20
2018-02-05T19:41:19.780Z,40.83
2018-02-05T19:43:46.570Z,32.07
2018-02-05T19:46:13.343Z,26.47
2018-02-05T19:48:40.642Z,28.67
2018-02-05T19:51:07.609Z,31.53
2018-02-05T19:53:34.355Z,22.67
2018-02-05T19:56:01.138Z,23.37
2018-02-05T19:58:28.055Z,21.80
2018-02-05T20:00:55.273Z,26.23
2018-02-05T20:03:22.166Z,25.83
2018-02-05T20:05:49.013Z,23.80
2018-02-05T20:08:15.765Z,21.23
2018-02-05T20:10:42.516Z,27.17
2018-02-05T20:13:09.335Z,31.30
2018-02-05T20:15:36.151Z,44.33
2018-02-05T20:18:02.917Z,30.00
2018-02-05T20:20:29.864Z,33.07
2018-02-05T20:22:56.662Z,28.80
2018-02-05T20:25:23.772Z,32.10
2018-02-05T20:27:50.606Z,27.43
2018-02-05T20:30:18.078Z,30.30
2018-02-05T20:32:44.848Z,29.30
2018-02-05T20:35:12.027Z,32.45
2018-02-05T20:37:38.851Z,29.02
2018-02-05T20:40:05.778Z,29.35
2018-02-05T20:42:32.693Z,22.80
2018-02-05T20:44:59.524Z,31.58
2018-02-05T20:47:27.136Z,23.97
2018-02-05T20:49:54.023Z,26.48
2018-02-05T20:52:20.806Z,22.62
2018-02-05T20:54:47.585Z,22.40
2018-02-05T20:57:14.373Z,21.48
2018-02-05T20:59:41.365Z,25.35
2018-02-05T21:02:08.124Z,25.00
2018-02-05T21:04:36.385Z,21.97
2018-02-05T21:07:03.206Z,24.50
2018-02-05T21:09:29.961Z,26.20
2018-02-05T21:11:56.806Z,26.35
2018-02-05T21:14:23.648Z,22.87
2018-02-05T21:16:50.593Z,23.75
2018-02-05T21:19:17.818Z,24.02
2018-02-05T21:21:44.581Z,22.85
2018-02-05T21:24:11.350Z,22.33
2018-02-05T21:26:38.157Z,22.20
2018-02-05T21:29:04.953Z,20.85
2018-02-05T21:31:31.767Z,20.17
2018-02-05T21:33:59.547Z,20.65
2018-02-05T21:36:26.526Z,19.77
2018-02-05T21:38:53.335Z,18.90
2018-02-05T21:41:20.104Z,22.58
2018-02-05T21:43:48.445Z,22.05
2018-02-05T21:46:15.279Z,20.05
2018-02-05T21:48:42.039Z,21.95
2018-02-05T21:51:08.810Z,22.80
2018-02-05T21:53:35.850Z,19.40
2018-02-05T21:56:02.822Z,19.20
2018-02-05T21:58:29.612Z,27.17
2018-02-05T22:00:56.394Z,29.70
2018-02-05T22:03:23.250Z,26.73
2018-02-05T22:05:50.050Z,29.83
2018-02-05T22:08:16.872Z,31.17
2018-02-05T22:10:43.660Z,35.40
2018-02-05T22:13:21.195Z,34.55
2018-02-05T22:15:48.124Z,26.37
2018-02-05T22:18:15.619Z,21.87
2018-02-05T22:20:42.404Z,25.15
2018-02-05T22:23:09.624Z,23.58
2018-02-05T22:25:46.082Z,27.17
2018-02-05T22:28:18.258Z,24.87
2018-02-05T22:30:45.057Z,29.60
2018-02-05T22:33:11.861Z,26.35
2018-02-05T22:35:38.656Z,23.33
2018-02-05T22:38:05.454Z,19.35
2018-02-05T22:40:32.203Z,20.45
2018-02-05T22:42:58.985Z,22.02
2018-02-05T22:45:26.251Z,24.92
2018-02-05T22:47:53.016Z,26.02
2018-02-05T22:50:19.917Z,28.33
2018-02-05T22:52:46.719Z,29.95
2018-02-05T22:55:28.141Z,35.88
2018-02-05T22:57:55.112Z,33.65
2018-02-05T23:00:21.902Z,33.58
2018-02-05T23:02:48.703Z,35.45
2018-02-05T23:05:15.488Z,43.13
2018-02-05T23:07:42.249Z,41.63
2018-02-05T23:10:09.157Z,43.60
2018-02-05T23:12:35.940Z,42.53
2018-02-05T23:17:53.330Z,40.38
2018-02-05T23:20:20.096Z,35.50
2018-02-05T23:22:46.890Z,35.10
2018-02-05T23:25:23.706Z,36.17
2018-02-05T23:27:50.495Z,32.92
2018-02-05T23:30:17.265Z,36.08
2018-02-05T23:32:44.006Z,36.63
2018-02-05T23:35:10.769Z,34.45
2018-02-05T23:37:37.709Z,38.60
2018-02-05T23:40:04.599Z,27.20
2018-02-05T23:42:31.365Z,22.70
2018-02-05T23:44:58.174Z,32.08
2018-02-05T23:47:28.161Z,30.25
2018-02-05T23:49:54.959Z,38.08
2018-02-05T23:52:22.666Z,34.05
2018-02-05T23:54:49.450Z,25.62
2018-02-05T23:57:16.207Z,24.58
2018-02-05T23:59:43.017Z,27.48
